createdAt,value
2023-04-24T00:00:01.564Z,4.77
2023-04-24T00:05:26.877Z,4.71
2023-04-24T00:10:49.283Z,4.70
2023-04-24T00:16:13.180Z,4.67
2023-04-24T00:21:35.325Z,4.52
2023-04-24T00:26:57.239Z,4.62
2023-04-24T00:32:19.687Z,4.57
2023-04-24T00:37:42.045Z,4.52
2023-04-24T00:43:05.432Z,4.42
2023-04-24T00:48:28.441Z,4.44
2023-04-24T00:54:07.060Z,4.44
2023-04-24T00:59:29.155Z,4.22
2023-04-24T01:04:52.783Z,4.39
2023-04-24T01:10:15.628Z,4.30
2023-04-24T01:15:37.707Z,4.29
2023-04-24T01:21:01.044Z,4.21
2023-04-24T01:26:24.412Z,4.16
2023-04-24T01:31:48.110Z,4.07
2023-04-24T01:37:10.246Z,4.04
2023-04-24T01:42:32.189Z,3.97
2023-04-24T01:47:54.520Z,3.98
2023-04-24T01:53:16.552Z,3.92
2023-04-24T01:58:38.532Z,3.86
2023-04-24T02:04:01.007Z,3.79
2023-04-24T02:09:23.778Z,3.75
2023-04-24T02:14:46.366Z,3.58
2023-04-24T02:20:09.014Z,3.72
2023-04-24T02:25:32.262Z,3.78
2023-04-24T02:30:55.523Z,3.92
2023-04-24T02:36:18.601Z,3.91
2023-04-24T02:41:41.586Z,3.95
2023-04-24T02:47:05.029Z,4.02
2023-04-24T02:52:27.442Z,4.14
2023-04-24T02:57:49.587Z,4.18
2023-04-24T03:03:11.682Z,4.23
2023-04-24T03:08:34.304Z,4.46
2023-04-24T03:13:56.472Z,4.61
2023-04-24T03:19:18.504Z,4.82
2023-04-24T03:24:52.437Z,5.05
2023-04-24T03:30:15.059Z,5.33
2023-04-24T03:35:45.561Z,5.66
2023-04-24T03:41:08.347Z,6.15
2023-04-24T03:46:42.256Z,6.52
2023-04-24T03:52:04.866Z,6.79
2023-04-24T03:57:27.151Z,7.10
2023-04-24T04:03:02.634Z,7.36
2023-04-24T04:08:26.100Z,7.71
2023-04-24T04:13:49.945Z,7.91
2023-04-24T04:19:15.577Z,8.45
2023-04-24T04:24:39.621Z,8.99
2023-04-24T04:30:06.204Z,9.88
2023-04-24T04:35:38.491Z,10.98
2023-04-24T04:41:02.235Z,11.73
2023-04-24T04:46:27.790Z,12.34
2023-04-24T04:52:00.520Z,13.15
2023-04-24T04:57:24.055Z,13.82
2023-04-24T05:02:46.956Z,14.63
2023-04-24T05:08:19.787Z,15.20
2023-04-24T05:13:48.719Z,15.69
2023-04-24T05:19:15.576Z,16.26
2023-04-24T05:24:38.146Z,16.71
2023-04-24T05:30:19.360Z,17.15
2023-04-24T05:35:48.451Z,17.55
2023-04-24T05:41:10.727Z,17.99
2023-04-24T05:46:33.093Z,18.23
2023-04-24T05:51:55.370Z,18.62
2023-04-24T05:57:17.767Z,18.81
2023-04-24T06:02:47.070Z,19.30
2023-04-24T06:08:12.838Z,19.54
2023-04-24T06:13:36.435Z,19.52
2023-04-24T06:19:19.005Z,19.78
2023-04-24T06:24:44.958Z,19.91
2023-04-24T06:30:08.624Z,20.13
2023-04-24T06:35:31.184Z,20.22
2023-04-24T06:40:53.514Z,20.23
2023-04-24T06:46:15.534Z,20.33
2023-04-24T06:51:38.067Z,20.25
2023-04-24T06:57:02.288Z,20.49
2023-04-24T07:02:28.565Z,20.52
2023-04-24T07:07:54.437Z,20.46
2023-04-24T07:13:16.789Z,20.59
2023-04-24T07:18:41.331Z,20.26
2023-04-24T07:24:03.677Z,20.33
2023-04-24T07:29:25.718Z,20.27
2023-04-24T07:34:47.593Z,20.56
2023-04-24T07:40:09.985Z,20.62
2023-04-24T07:45:32.762Z,20.84
2023-04-24T07:50:55.375Z,20.78
2023-04-24T07:56:19.216Z,20.88
2023-04-24T08:01:41.603Z,20.72
2023-04-24T08:07:06.485Z,20.60
2023-04-24T08:12:31.145Z,20.53
2023-04-24T08:17:53.765Z,20.45
2023-04-24T08:23:16.671Z,20.61
2023-04-24T08:28:39.226Z,21.01
2023-04-24T08:34:02.654Z,21.25
2023-04-24T08:39:26.161Z,21.07
2023-04-24T08:44:50.342Z,21.09
2023-04-24T08:50:13.607Z,21.09
2023-04-24T08:55:40.655Z,21.14
2023-04-24T09:01:03.630Z,21.07
2023-04-24T09:06:28.264Z,21.26
2023-04-24T09:11:51.807Z,21.28
2023-04-24T09:17:14.379Z,20.84
2023-04-24T09:22:36.866Z,20.98
2023-04-24T09:28:03.761Z,21.09
2023-04-24T09:33:25.770Z,21.10
2023-04-24T09:38:48.262Z,21.07
2023-04-24T09:44:16.736Z,21.08
2023-04-24T09:49:40.792Z,21.09
2023-04-24T09:55:03.306Z,21.18
2023-04-24T10:00:30.305Z,20.99
2023-04-24T10:05:56.757Z,20.99
2023-04-24T10:11:19.320Z,21.03
2023-04-24T10:16:42.352Z,21.14
2023-04-24T10:22:07.676Z,20.91
2023-04-24T10:27:34.310Z,20.93
2023-04-24T10:32:57.456Z,20.99
2023-04-24T10:38:26.474Z,21.33
2023-04-24T10:43:50.276Z,21.36
2023-04-24T10:49:12.868Z,21.25
2023-04-24T10:54:42.577Z,21.34
2023-04-24T11:00:21.680Z,21.23
2023-04-24T11:06:10.407Z,21.19
2023-04-24T11:11:32.642Z,21.25
2023-04-24T11:16:58.932Z,21.35
2023-04-24T11:22:23.342Z,21.36
2023-04-24T11:27:50.561Z,21.36
2023-04-24T11:33:14.510Z,21.30
2023-04-24T11:38:37.428Z,21.02
2023-04-24T11:43:59.980Z,21.13
2023-04-24T11:49:22.280Z,21.16
2023-04-24T11:54:51.982Z,21.25
2023-04-24T12:00:20.086Z,21.25
2023-04-24T12:05:42.672Z,21.21
2023-04-24T12:11:08.741Z,21.16
2023-04-24T12:16:33.251Z,21.10
2023-04-24T12:22:07.071Z,21.15
2023-04-24T12:27:32.757Z,21.15
2023-04-24T12:32:56.542Z,21.07
2023-04-24T12:38:23.716Z,21.02
2023-04-24T12:43:55.483Z,21.03
2023-04-24T12:49:17.483Z,21.05
2023-04-24T12:54:42.853Z,20.89
2023-04-24T13:00:06.488Z,20.94
2023-04-24T13:05:29.557Z,20.78
2023-04-24T13:10:52.617Z,20.67
2023-04-24T13:16:14.700Z,20.79
2023-04-24T13:21:36.852Z,20.79
2023-04-24T13:26:59.224Z,20.81
2023-04-24T13:32:21.318Z,20.79
2023-04-24T13:37:44.114Z,20.64
2023-04-24T13:43:06.429Z,20.54
2023-04-24T13:48:28.333Z,20.66
2023-04-24T13:53:50.229Z,20.66
2023-04-24T13:59:14.427Z,20.53
2023-04-24T14:04:37.223Z,20.39
2023-04-24T14:09:59.892Z,20.33
2023-04-24T14:15:26.248Z,20.41
2023-04-24T14:20:48.321Z,20.25
2023-04-24T14:26:10.787Z,20.19
2023-04-24T14:31:33.250Z,20.31
2023-04-24T14:36:56.120Z,20.35
2023-04-24T14:42:18.828Z,20.21
2023-04-24T14:47:41.137Z,20.09
2023-04-24T14:53:03.996Z,19.99
2023-04-24T14:58:26.270Z,19.88
2023-04-24T15:03:48.905Z,19.84
2023-04-24T15:09:13.527Z,19.71
2023-04-24T15:14:35.513Z,19.60
2023-04-24T15:19:58.786Z,19.57
2023-04-24T15:25:21.172Z,19.47
2023-04-24T15:30:43.154Z,19.33
2023-04-24T15:36:04.982Z,19.20
2023-04-24T15:41:26.877Z,19.07
2023-04-24T15:46:49.959Z,18.91
2023-04-24T15:52:12.421Z,18.80
2023-04-24T15:57:34.613Z,18.54
2023-04-24T16:02:56.770Z,18.46
2023-04-24T16:08:18.562Z,18.38
2023-04-24T16:13:40.752Z,18.17
2023-04-24T16:19:02.760Z,18.02
2023-04-24T16:24:25.109Z,17.89
2023-04-24T16:29:46.947Z,17.66
2023-04-24T16:35:09.774Z,17.55
2023-04-24T16:40:32.025Z,17.42
2023-04-24T16:45:55.304Z,17.16
2023-04-24T16:51:17.323Z,16.92
2023-04-24T16:56:39.288Z,16.74
2023-04-24T17:02:02.535Z,16.39
2023-04-24T17:07:24.689Z,16.13
2023-04-24T17:12:46.978Z,15.93
2023-04-24T17:18:09.573Z,15.60
2023-04-24T17:23:31.712Z,15.33
2023-04-24T17:28:55.745Z,14.98
2023-04-24T17:34:18.187Z,14.85
2023-04-24T17:39:40.024Z,14.59
2023-04-24T17:45:02.310Z,14.35
2023-04-24T17:50:25.712Z,14.23
2023-04-24T17:55:48.272Z,13.97
2023-04-24T18:01:10.218Z,13.63
2023-04-24T18:06:34.381Z,13.35
2023-04-24T18:11:57.763Z,13.16
2023-04-24T18:17:22.801Z,13.08
2023-04-24T18:22:45.376Z,12.95
2023-04-24T18:28:07.448Z,12.60
2023-04-24T18:33:29.431Z,12.52
2023-04-24T18:38:51.686Z,12.51
2023-04-24T18:44:13.666Z,12.32
2023-04-24T18:49:36.010Z,12.22
2023-04-24T18:54:58.246Z,11.98
2023-04-24T19:00:20.679Z,12.01
2023-04-24T19:05:42.589Z,12.04
2023-04-24T19:11:05.986Z,12.26
2023-04-24T19:16:27.861Z,12.07
2023-04-24T19:21:50.698Z,11.88
2023-04-24T19:27:13.222Z,11.83
2023-04-24T19:32:35.074Z,11.83
2023-04-24T19:37:57.394Z,11.68
2023-04-24T19:43:19.617Z,11.64
2023-04-24T19:48:41.985Z,11.96
2023-04-24T19:54:05.972Z,12.13
2023-04-24T19:59:27.960Z,12.13
2023-04-24T20:04:50.577Z,12.07
2023-04-24T20:10:13.028Z,11.92
2023-04-24T20:15:35.613Z,11.70
2023-04-24T20:21:00.278Z,11.49
2023-04-24T20:26:22.319Z,11.28
2023-04-24T20:31:44.678Z,11.06
2023-04-24T20:37:07.180Z,10.94
2023-04-24T20:42:29.571Z,10.85
2023-04-24T20:47:51.960Z,10.75
2023-04-24T20:53:14.345Z,10.61
2023-04-24T20:58:36.279Z,10.50
2023-04-24T21:03:58.101Z,10.49
2023-04-24T21:09:19.889Z,10.45
2023-04-24T21:14:41.813Z,10.38
2023-04-24T21:20:04.506Z,10.31
2023-04-24T21:25:26.745Z,10.26
2023-04-24T21:30:48.867Z,9.96
2023-04-24T21:36:10.896Z,9.97
2023-04-24T21:41:32.632Z,10.31
2023-04-24T21:46:55.398Z,10.31
2023-04-24T21:52:17.057Z,10.62
2023-04-24T21:57:39.361Z,10.65
2023-04-24T22:03:01.813Z,10.57
2023-04-24T22:08:24.046Z,10.37
2023-04-24T22:13:46.086Z,10.18
2023-04-24T22:19:09.054Z,10.22
2023-04-24T22:24:31.474Z,10.42
2023-04-24T22:29:53.920Z,10.27
2023-04-24T22:35:15.862Z,10.22
2023-04-24T22:40:37.798Z,10.20
2023-04-24T22:45:59.991Z,10.25
2023-04-24T22:51:21.815Z,10.24
2023-04-24T22:56:43.777Z,10.24
2023-04-24T23:02:06.133Z,10.21
2023-04-24T23:07:29.607Z,10.22
2023-04-24T23:12:51.927Z,10.20
2023-04-24T23:18:58.872Z,10.01
2023-04-24T23:24:21.292Z,9.73
2023-04-24T23:30:08.474Z,9.18
2023-04-24T23:35:35.349Z,9.19
2023-04-24T23:40:58.195Z,9.26
2023-04-24T23:53:03.459Z,9.35
2023-04-24T23:58:25.530Z,9.23
